createdAt,value
2018-01-03T00:00:15.632Z,74.26
2018-01-03T00:02:43.070Z,74.14
2018-01-03T00:05:10.538Z,74.17
2018-01-03T00:07:38.047Z,74.43
2018-01-03T00:10:05.534Z,74.43
2018-01-03T00:12:35.303Z,74.65
2018-01-03T00:15:02.719Z,74.69
2018-01-03T00:17:30.184Z,74.91
2018-01-03T00:19:57.640Z,74.86
2018-01-03T00:22:25.083Z,74.91
2018-01-03T00:24:53.331Z,74.96
2018-01-03T00:27:20.772Z,75.43
2018-01-03T00:29:48.246Z,75.48
2018-01-03T00:32:16.783Z,75.92
2018-01-03T00:34:44.266Z,75.43
2018-01-03T00:37:11.752Z,75.98
2018-01-03T00:39:39.268Z,74.64
2018-01-03T00:42:06.718Z,74.94
2018-01-03T00:44:36.857Z,75.64
2018-01-03T00:47:04.315Z,75.73
2018-01-03T00:49:31.747Z,75.53
2018-01-03T00:51:59.187Z,75.03
2018-01-03T00:54:27.677Z,74.98
2018-01-03T00:56:55.135Z,74.32
2018-01-03T00:59:22.576Z,74.44
2018-01-03T01:01:50.054Z,74.93
2018-01-03T01:04:18.396Z,74.84
2018-01-03T01:06:46.132Z,75.28
2018-01-03T01:09:13.603Z,76.23
2018-01-03T01:11:41.090Z,76.63
2018-01-03T01:14:08.563Z,76.66
2018-01-03T01:16:36.015Z,76.31
2018-01-03T01:19:04.091Z,76.33
2018-01-03T01:21:31.558Z,76.75
2018-01-03T01:23:58.999Z,76.83
2018-01-03T01:26:26.453Z,76.68
2018-01-03T01:28:53.913Z,76.98
2018-01-03T01:31:21.399Z,77.09
2018-01-03T01:33:48.869Z,76.90
2018-01-03T01:36:16.343Z,76.86
2018-01-03T01:38:43.796Z,77.29
2018-01-03T01:41:11.253Z,77.24
2018-01-03T01:43:38.712Z,76.96
2018-01-03T01:46:06.175Z,77.68
2018-01-03T01:48:33.616Z,78.24
2018-01-03T01:51:01.087Z,79.02
2018-01-03T01:53:28.532Z,79.39
2018-01-03T01:55:55.979Z,79.47
2018-01-03T01:58:23.442Z,79.93
2018-01-03T02:00:50.909Z,79.48
2018-01-03T02:03:19.300Z,79.22
2018-01-03T02:05:46.737Z,79.61
2018-01-03T02:08:14.185Z,79.33
2018-01-03T02:10:41.662Z,78.64
2018-01-03T02:13:09.126Z,78.02
2018-01-03T02:15:36.594Z,78.47
2018-01-03T02:18:04.050Z,78.63
2018-01-03T02:20:31.662Z,78.49
2018-01-03T02:22:59.313Z,78.20
2018-01-03T02:25:26.774Z,78.10
2018-01-03T02:27:54.244Z,78.08
2018-01-03T02:30:21.692Z,78.16
2018-01-03T02:32:49.156Z,78.22
2018-01-03T02:35:16.608Z,77.74
2018-01-03T02:37:44.067Z,77.88
2018-01-03T02:40:11.603Z,78.32
2018-01-03T02:42:39.089Z,78.49
2018-01-03T02:45:06.550Z,78.96
2018-01-03T02:47:34.007Z,79.19
2018-01-03T02:50:01.458Z,78.97
2018-01-03T02:52:28.934Z,79.28
2018-01-03T02:54:56.447Z,79.24
2018-01-03T02:57:23.903Z,79.35
2018-01-03T02:59:51.351Z,79.65
2018-01-03T03:02:18.805Z,79.75
2018-01-03T03:04:46.383Z,80.00
2018-01-03T03:07:13.823Z,79.91
2018-01-03T03:09:41.275Z,79.93
2018-01-03T03:12:08.726Z,80.05
2018-01-03T03:14:36.189Z,80.17
2018-01-03T03:17:03.714Z,79.83
2018-01-03T03:19:31.165Z,79.01
2018-01-03T03:21:58.622Z,77.78
2018-01-03T03:24:27.874Z,77.56
2018-01-03T03:26:55.322Z,77.41
2018-01-03T03:29:22.786Z,77.77
2018-01-03T03:31:50.242Z,78.52
2018-01-03T03:34:17.754Z,78.86
2018-01-03T03:36:45.211Z,78.42
2018-01-03T03:39:12.663Z,78.16
2018-01-03T03:41:40.147Z,77.91
2018-01-03T03:44:07.587Z,77.69
2018-01-03T03:46:35.061Z,76.95
2018-01-03T03:49:02.522Z,76.75
2018-01-03T03:51:30.612Z,77.12
2018-01-03T03:53:58.058Z,77.19
2018-01-03T03:56:25.556Z,76.92
2018-01-03T03:58:53.012Z,76.97
2018-01-03T04:01:20.458Z,76.80
2018-01-03T04:03:47.907Z,76.95
2018-01-03T04:06:15.342Z,76.99
2018-01-03T04:08:42.778Z,77.22
2018-01-03T04:11:10.257Z,77.66
2018-01-03T04:13:37.705Z,77.62
2018-01-03T04:16:05.177Z,77.56
2018-01-03T04:18:32.626Z,76.94
2018-01-03T04:21:00.083Z,76.77
2018-01-03T04:23:27.536Z,77.72
2018-01-03T04:25:54.980Z,78.00
2018-01-03T04:28:22.436Z,78.62
2018-01-03T04:30:49.906Z,79.31
2018-01-03T04:33:19.074Z,79.30
2018-01-03T04:35:46.519Z,78.96
2018-01-03T04:38:13.964Z,78.65
2018-01-03T04:40:41.415Z,78.73
2018-01-03T04:43:08.867Z,79.07
2018-01-03T04:45:36.306Z,79.44
2018-01-03T04:48:03.762Z,78.75
2018-01-03T04:50:31.243Z,77.89
2018-01-03T04:52:59.550Z,77.84
2018-01-03T04:55:27.038Z,76.87
2018-01-03T04:57:54.495Z,77.19
2018-01-03T05:00:21.936Z,76.71
2018-01-03T05:02:49.399Z,75.80
2018-01-03T05:05:16.862Z,75.87
2018-01-03T05:07:44.310Z,75.20
2018-01-03T05:10:11.803Z,74.66
2018-01-03T05:12:39.259Z,74.44
2018-01-03T05:15:06.692Z,73.32
2018-01-03T05:17:34.122Z,73.34
2018-01-03T05:20:01.607Z,73.84
2018-01-03T05:22:29.077Z,73.00
2018-01-03T05:24:56.504Z,72.00
2018-01-03T05:27:23.954Z,72.21
2018-01-03T05:29:51.419Z,71.07
2018-01-03T05:32:18.856Z,70.85
2018-01-03T05:34:46.312Z,70.66
2018-01-03T05:37:13.787Z,70.53
2018-01-03T05:39:41.237Z,68.96
2018-01-03T05:42:08.685Z,68.61
2018-01-03T05:44:36.895Z,68.47
2018-01-03T05:47:04.361Z,68.29
2018-01-03T05:49:31.814Z,68.94
2018-01-03T05:51:59.247Z,69.51
2018-01-03T05:54:29.235Z,69.72
2018-01-03T05:56:56.706Z,70.09
2018-01-03T05:59:24.235Z,69.47
2018-01-03T06:01:51.683Z,68.92
2018-01-03T06:04:19.153Z,68.70
2018-01-03T06:06:46.722Z,68.68
2018-01-03T06:09:14.242Z,68.32
2018-01-03T06:11:41.679Z,67.91
2018-01-03T06:14:09.131Z,67.16
2018-01-03T06:16:36.588Z,67.20
2018-01-03T06:19:04.627Z,67.57
2018-01-03T06:21:32.091Z,67.78
2018-01-03T06:23:59.566Z,66.75
2018-01-03T06:26:27.010Z,67.16
2018-01-03T06:28:54.563Z,67.18
2018-01-03T06:31:21.955Z,67.20
2018-01-03T06:33:49.413Z,67.43
2018-01-03T06:36:16.871Z,67.45
2018-01-03T06:38:44.331Z,66.90
2018-01-03T06:41:13.239Z,67.00
2018-01-03T06:43:40.711Z,66.54
2018-01-03T06:46:08.159Z,66.57
2018-01-03T06:48:35.598Z,66.53
2018-01-03T06:51:03.052Z,66.68
2018-01-03T06:53:30.508Z,66.71
2018-01-03T06:55:57.976Z,66.38
2018-01-03T06:58:25.422Z,67.09
2018-01-03T07:00:52.856Z,67.00
2018-01-03T07:03:20.310Z,66.94
2018-01-03T07:05:47.758Z,66.30
2018-01-03T07:08:16.659Z,66.42
2018-01-03T07:10:44.130Z,65.79
2018-01-03T07:13:11.710Z,65.67
2018-01-03T07:15:39.178Z,65.30
2018-01-03T07:18:06.619Z,64.81
2018-01-03T07:20:35.242Z,65.18
2018-01-03T07:23:02.715Z,65.24
2018-01-03T07:25:30.164Z,63.88
2018-01-03T07:27:57.672Z,63.84
2018-01-03T07:30:25.154Z,63.76
2018-01-03T07:32:52.615Z,62.99
2018-01-03T07:35:20.128Z,62.81
2018-01-03T07:37:47.570Z,62.42
2018-01-03T07:40:16.000Z,62.65
2018-01-03T07:42:43.502Z,62.78
2018-01-03T07:45:10.950Z,63.13
2018-01-03T07:47:38.445Z,62.25
2018-01-03T07:50:05.952Z,61.93
2018-01-03T07:52:33.392Z,61.76
2018-01-03T07:55:00.875Z,61.45
2018-01-03T07:57:28.373Z,61.89
2018-01-03T07:59:55.908Z,60.93
2018-01-03T08:02:23.364Z,63.45
2018-01-03T08:04:50.846Z,63.42
2018-01-03T08:07:18.499Z,62.74
2018-01-03T08:09:45.953Z,63.27
2018-01-03T08:12:13.427Z,62.96
2018-01-03T08:14:40.878Z,63.27
2018-01-03T08:17:08.340Z,64.07
2018-01-03T08:19:35.787Z,64.08
2018-01-03T08:22:03.255Z,64.87
2018-01-03T08:24:30.788Z,66.18
2018-01-03T08:26:58.241Z,67.54
2018-01-03T08:29:25.692Z,66.68
2018-01-03T08:31:53.164Z,67.13
2018-01-03T08:34:20.640Z,67.92
2018-01-03T08:36:48.143Z,68.72
2018-01-03T08:39:17.122Z,69.94
2018-01-03T08:41:44.596Z,70.32
2018-01-03T08:44:12.056Z,72.00
2018-01-03T08:46:39.578Z,71.44
2018-01-03T08:49:07.028Z,71.82
2018-01-03T08:51:34.470Z,70.61
2018-01-03T08:54:01.971Z,71.08
2018-01-03T08:56:29.449Z,72.00
2018-01-03T08:58:56.912Z,71.76
2018-01-03T09:01:24.377Z,71.47
2018-01-03T09:03:51.841Z,71.10
2018-01-03T09:06:19.282Z,72.08
2018-01-03T09:08:46.755Z,72.88
2018-01-03T09:11:14.206Z,72.13
2018-01-03T09:13:41.675Z,71.33
2018-01-03T09:16:09.135Z,71.14
2018-01-03T09:18:36.643Z,71.21
2018-01-03T09:21:04.098Z,70.53
2018-01-03T09:23:31.539Z,71.24
2018-01-03T09:25:58.981Z,70.13
2018-01-03T09:28:26.466Z,70.44
2018-01-03T09:30:53.919Z,69.56
2018-01-03T09:33:21.375Z,69.41
2018-01-03T09:35:48.831Z,69.60
2018-01-03T09:38:16.314Z,68.54
2018-01-03T09:40:44.173Z,67.74
2018-01-03T09:43:11.619Z,67.72
2018-01-03T09:45:39.056Z,68.43
2018-01-03T09:48:06.514Z,67.59
2018-01-03T09:50:33.957Z,68.59
2018-01-03T09:53:01.412Z,69.44
2018-01-03T09:55:28.891Z,70.52
2018-01-03T09:57:56.340Z,70.32
2018-01-03T10:00:23.884Z,71.15
2018-01-03T10:02:51.351Z,72.45
2018-01-03T10:05:18.783Z,73.33
2018-01-03T10:07:46.273Z,75.24
2018-01-03T10:10:14.230Z,75.02
2018-01-03T10:12:41.672Z,75.25
2018-01-03T10:15:09.128Z,74.66
2018-01-03T10:17:36.596Z,72.92
2018-01-03T10:20:04.458Z,72.74
2018-01-03T10:22:33.453Z,72.18
2018-01-03T10:25:00.927Z,71.62
2018-01-03T10:27:28.388Z,70.65
2018-01-03T10:29:55.851Z,70.91
2018-01-03T10:32:23.372Z,69.49
2018-01-03T10:34:50.823Z,69.81
2018-01-03T10:37:18.310Z,69.50
2018-01-03T10:39:45.777Z,69.10
2018-01-03T10:42:13.239Z,69.48
2018-01-03T10:44:41.488Z,68.32
2018-01-03T10:47:09.095Z,67.32
2018-01-03T10:49:36.547Z,66.72
2018-01-03T10:52:04.000Z,66.12
2018-01-03T10:54:31.456Z,66.25
2018-01-03T10:56:58.891Z,64.90
2018-01-03T10:59:26.403Z,64.86
2018-01-03T11:01:53.846Z,63.78
2018-01-03T11:04:21.354Z,62.85
2018-01-03T11:06:48.854Z,63.35
2018-01-03T11:09:16.599Z,61.59
2018-01-03T11:11:44.042Z,63.95
2018-01-03T11:14:11.541Z,63.04
2018-01-03T11:16:39.164Z,62.78
2018-01-03T11:19:06.655Z,62.47
2018-01-03T11:21:34.099Z,62.70
2018-01-03T11:24:01.566Z,62.07
2018-01-03T11:26:29.094Z,62.05
2018-01-03T11:28:56.731Z,61.69
2018-01-03T11:31:24.204Z,62.02
2018-01-03T11:33:51.688Z,63.12
2018-01-03T11:36:19.155Z,63.55
2018-01-03T11:38:46.663Z,63.50
2018-01-03T11:41:14.207Z,63.79
2018-01-03T11:43:41.688Z,63.60
2018-01-03T11:46:09.170Z,62.98
2018-01-03T11:48:36.653Z,63.63
2018-01-03T11:51:04.242Z,63.72
2018-01-03T11:53:31.769Z,63.88
2018-01-03T11:55:59.305Z,63.55
2018-01-03T11:58:26.791Z,63.94
2018-01-03T12:00:54.263Z,63.76
2018-01-03T12:03:21.728Z,70.65
2018-01-03T12:05:49.243Z,62.38
2018-01-03T12:08:16.795Z,62.47
2018-01-03T12:10:45.543Z,58.79
2018-01-03T12:13:13.011Z,59.42
2018-01-03T12:15:40.499Z,62.39
2018-01-03T12:18:07.988Z,62.15
2018-01-03T12:20:35.499Z,62.29
2018-01-03T12:23:04.676Z,64.12
2018-01-03T12:25:32.168Z,65.46
2018-01-03T12:30:32.415Z,66.45
2018-01-03T12:33:00.451Z,66.09
2018-01-03T12:35:27.928Z,67.03
2018-01-03T12:37:55.426Z,67.32
2018-01-03T12:40:22.904Z,66.94
2018-01-03T12:42:50.445Z,68.43
2018-01-03T12:45:18.039Z,69.82
2018-01-03T12:47:45.514Z,70.44
2018-01-03T12:50:13.000Z,70.94
2018-01-03T12:52:40.487Z,71.63
2018-01-03T12:55:07.951Z,72.32
2018-01-03T12:57:35.408Z,72.78
2018-01-03T13:00:02.900Z,73.95
2018-01-03T13:02:30.382Z,74.89
2018-01-03T13:04:57.915Z,75.68
2018-01-03T13:07:25.410Z,76.63
2018-01-03T13:09:52.912Z,78.54
2018-01-03T13:12:20.360Z,80.32
2018-01-03T13:14:47.816Z,81.44
2018-01-03T13:17:15.268Z,81.89
2018-01-03T13:19:42.789Z,82.57
2018-01-03T13:22:10.267Z,83.37
2018-01-03T13:24:37.737Z,83.76
2018-01-03T13:27:05.632Z,83.54
2018-01-03T13:29:33.138Z,81.71
2018-01-03T13:32:00.620Z,80.92
2018-01-03T13:34:28.183Z,79.88
2018-01-03T13:36:55.655Z,78.85
2018-01-03T13:39:23.150Z,78.89
2018-01-03T13:41:50.600Z,78.51
2018-01-03T13:44:20.997Z,78.09
2018-01-03T13:46:48.441Z,77.77
2018-01-03T13:49:15.903Z,77.80
2018-01-03T13:51:43.402Z,77.16
2018-01-03T13:54:10.863Z,76.77
2018-01-03T13:56:38.302Z,76.80
2018-01-03T13:59:05.782Z,76.31
2018-01-03T14:14:28.562Z,76.19
2018-01-03T14:16:56.003Z,75.50
2018-01-03T14:19:23.463Z,75.52
2018-01-03T14:21:50.941Z,75.19
2018-01-03T14:24:18.406Z,74.50
2018-01-03T14:26:45.869Z,73.61
2018-01-03T14:29:13.331Z,73.62
2018-01-03T14:31:40.853Z,73.00
2018-01-03T14:34:08.293Z,72.53
2018-01-03T14:36:35.760Z,73.31
2018-01-03T14:39:03.247Z,73.08
2018-01-03T14:41:30.719Z,73.26
2018-01-03T14:43:58.207Z,73.31
2018-01-03T14:46:25.653Z,73.48
2018-01-03T14:48:53.182Z,74.21
2018-01-03T14:51:20.639Z,71.35
2018-01-03T14:53:48.080Z,69.60
2018-01-03T14:56:17.247Z,69.51
2018-01-03T14:58:44.701Z,69.61
2018-01-03T15:01:12.159Z,70.06
2018-01-03T15:03:39.615Z,68.90
2018-01-03T15:06:07.048Z,69.04
2018-01-03T15:08:34.934Z,69.49
2018-01-03T15:11:02.476Z,68.26
2018-01-03T15:13:29.910Z,68.40
2018-01-03T15:15:57.358Z,68.61
2018-01-03T15:18:25.042Z,68.93
2018-01-03T15:20:52.514Z,68.99
2018-01-03T15:23:20.001Z,68.01
2018-01-03T15:25:47.447Z,68.44
2018-01-03T15:28:16.702Z,68.81
2018-01-03T15:30:44.203Z,68.64
2018-01-03T15:33:11.683Z,68.70
2018-01-03T15:35:39.196Z,68.18
2018-01-03T15:38:06.660Z,68.78
2018-01-03T15:40:34.675Z,67.44
2018-01-03T15:43:02.136Z,67.72
2018-01-03T15:45:29.604Z,68.19
2018-01-03T15:47:57.107Z,67.90
2018-01-03T15:50:24.616Z,67.67
2018-01-03T15:52:52.075Z,67.42
2018-01-03T15:55:20.279Z,67.28
2018-01-03T15:57:47.770Z,66.87
2018-01-03T16:00:15.260Z,66.90
2018-01-03T16:02:42.699Z,66.96
2018-01-03T16:05:10.231Z,66.51
2018-01-03T16:07:37.716Z,66.62
2018-01-03T16:10:05.184Z,66.76
2018-01-03T16:12:32.640Z,67.10
2018-01-03T16:15:00.165Z,67.63
2018-01-03T16:17:27.654Z,67.40
2018-01-03T16:19:56.697Z,67.54
2018-01-03T16:22:24.207Z,67.99
2018-01-03T16:24:51.704Z,68.12
2018-01-03T16:27:19.200Z,67.73
2018-01-03T16:29:46.675Z,67.77
2018-01-03T16:32:14.159Z,67.69
2018-01-03T16:34:41.620Z,68.03
2018-01-03T16:37:09.074Z,67.67
2018-01-03T16:39:37.072Z,67.83
2018-01-03T16:42:04.562Z,67.24
2018-01-03T16:44:32.091Z,67.07
2018-01-03T16:46:59.644Z,67.20
2018-01-03T16:49:27.118Z,67.52
2018-01-03T16:52:00.033Z,67.13
2018-01-03T16:54:27.803Z,66.74
2018-01-03T16:56:55.414Z,66.90
2018-01-03T16:59:22.927Z,66.88
2018-01-03T17:01:51.054Z,66.47
2018-01-03T17:04:18.619Z,66.83
2018-01-03T17:06:47.157Z,66.51
2018-01-03T17:09:14.726Z,66.83
2018-01-03T17:11:42.266Z,67.17
2018-01-03T17:14:09.730Z,67.20
2018-01-03T17:16:37.186Z,67.46
2018-01-03T17:19:04.662Z,67.14
2018-01-03T17:21:32.111Z,67.40
2018-01-03T17:23:59.583Z,67.58
2018-01-03T17:26:27.060Z,67.49
2018-01-03T17:28:54.514Z,67.76
2018-01-03T17:31:21.980Z,67.67
2018-01-03T17:33:49.461Z,67.98
2018-01-03T17:36:16.928Z,67.66
2018-01-03T17:38:44.391Z,67.79
2018-01-03T17:41:11.830Z,68.10
2018-01-03T17:43:39.295Z,68.01
2018-01-03T17:46:06.755Z,67.97
2018-01-03T17:48:34.298Z,68.00
2018-01-03T17:51:01.779Z,67.95
2018-01-03T17:53:29.266Z,67.63
2018-01-03T17:55:56.846Z,67.76
2018-01-03T17:58:24.373Z,67.70
2018-01-03T18:00:51.845Z,67.93
2018-01-03T18:03:19.304Z,67.59
2018-01-03T18:05:46.778Z,67.34
2018-01-03T18:08:14.256Z,66.90
2018-01-03T18:10:41.754Z,66.89
2018-01-03T18:13:09.211Z,67.06
2018-01-03T18:15:36.720Z,67.01
2018-01-03T18:18:05.170Z,67.03
2018-01-03T18:20:32.767Z,66.80
2018-01-03T18:23:00.223Z,66.77
2018-01-03T18:25:27.785Z,67.03
2018-01-03T18:27:55.322Z,67.28
2018-01-03T18:30:22.824Z,67.37
2018-01-03T18:32:50.286Z,67.23
2018-01-03T18:35:17.722Z,67.25
2018-01-03T18:37:45.580Z,67.35
2018-01-03T18:40:13.023Z,67.00
2018-01-03T18:42:40.484Z,66.81
2018-01-03T18:45:07.972Z,66.38
2018-01-03T18:47:35.428Z,66.31
2018-01-03T18:50:02.957Z,66.10
2018-01-03T18:52:30.424Z,66.11
2018-01-03T18:54:57.894Z,66.00
2018-01-03T18:57:25.451Z,66.35
2018-01-03T18:59:52.959Z,66.22
2018-01-03T19:02:20.459Z,66.49
2018-01-03T19:04:47.952Z,66.49
2018-01-03T19:07:15.462Z,66.38
2018-01-03T19:09:42.915Z,66.21
2018-01-03T19:12:10.435Z,65.60
2018-01-03T19:17:11.712Z,65.89
2018-01-03T19:19:39.223Z,65.90
2018-01-03T19:22:06.675Z,66.07
2018-01-03T19:24:34.154Z,66.25
2018-01-03T19:27:01.638Z,66.54
2018-01-03T19:29:29.166Z,65.57
2018-01-03T19:31:56.664Z,66.04
2018-01-03T19:34:24.269Z,66.15
2018-01-03T19:36:51.755Z,65.66
2018-01-03T19:39:19.229Z,65.84
2018-01-03T19:41:46.747Z,65.91
2018-01-03T19:44:14.350Z,66.22
2018-01-03T19:46:41.813Z,66.47
2018-01-03T19:49:09.710Z,65.75
2018-01-03T19:51:37.310Z,65.69
2018-01-03T19:54:04.866Z,65.62
2018-01-03T19:56:33.274Z,65.59
2018-01-03T19:59:00.919Z,65.62
2018-01-03T20:01:28.512Z,65.19
2018-01-03T20:03:56.009Z,65.34
2018-01-03T20:06:24.160Z,65.32
2018-01-03T20:08:51.834Z,64.90
2018-01-03T20:11:19.344Z,64.96
2018-01-03T20:13:47.068Z,64.95
2018-01-03T20:16:14.737Z,64.95
2018-01-03T20:18:42.264Z,64.67
2018-01-03T20:21:09.966Z,64.32
2018-01-03T20:23:37.993Z,63.98
2018-01-03T20:26:05.730Z,64.24
2018-01-03T20:28:33.340Z,63.85
2018-01-03T20:31:00.903Z,63.58
2018-01-03T20:33:28.382Z,63.70
2018-01-03T20:35:56.011Z,63.24
2018-01-03T20:38:23.776Z,63.41
2018-01-03T20:40:51.574Z,63.26
2018-01-03T20:43:19.361Z,63.20
2018-01-03T20:45:47.946Z,62.90
2018-01-03T20:48:15.752Z,63.39
2018-01-03T20:50:43.608Z,62.79
2018-01-03T20:53:11.249Z,62.71
2018-01-03T20:55:39.004Z,62.26
2018-01-03T20:58:06.553Z,62.27
2018-01-03T21:00:34.150Z,62.48
2018-01-03T21:03:01.783Z,61.91
2018-01-03T21:05:29.500Z,61.63
2018-01-03T21:07:57.256Z,61.50
2018-01-03T21:10:24.985Z,61.55
2018-01-03T21:12:52.675Z,61.59
2018-01-03T21:15:20.235Z,61.44
2018-01-03T21:17:47.755Z,61.02
2018-01-03T21:20:21.163Z,60.89
2018-01-03T21:22:49.608Z,60.50
2018-01-03T21:25:17.147Z,60.85
2018-01-03T21:27:44.928Z,59.92
2018-01-03T21:30:12.527Z,60.30
2018-01-03T21:32:40.072Z,59.51
2018-01-03T21:35:07.587Z,59.45
2018-01-03T21:37:35.129Z,59.16
2018-01-03T21:40:02.602Z,58.93
2018-01-03T21:42:30.079Z,58.95
2018-01-03T21:44:57.581Z,58.76
2018-01-03T21:47:25.124Z,59.08
2018-01-03T21:49:53.145Z,58.80
2018-01-03T21:52:20.702Z,58.75
2018-01-03T21:54:48.202Z,58.40
2018-01-03T21:57:17.036Z,58.91
2018-01-03T21:59:44.529Z,58.48
2018-01-03T22:02:12.050Z,58.46
2018-01-03T22:04:39.545Z,58.07
2018-01-03T22:07:07.203Z,58.19
2018-01-03T22:09:34.664Z,58.07
2018-01-03T22:12:02.134Z,57.73
2018-01-03T22:14:29.659Z,57.33
2018-01-03T22:16:57.163Z,57.72
2018-01-03T22:19:24.637Z,56.77
2018-01-03T22:21:52.148Z,56.58
2018-01-03T22:24:19.659Z,56.82
2018-01-03T22:26:47.164Z,56.91
2018-01-03T22:29:14.717Z,57.15
2018-01-03T22:31:42.258Z,57.40
2018-01-03T22:34:09.757Z,57.43
2018-01-03T22:36:37.235Z,56.93
2018-01-03T22:39:04.781Z,57.18
2018-01-03T22:41:32.244Z,57.90
2018-01-03T22:43:59.724Z,57.25
2018-01-03T22:46:27.204Z,57.17
2018-01-03T22:48:54.668Z,57.31
2018-01-03T22:51:22.163Z,57.34
2018-01-03T22:53:49.687Z,57.38
2018-01-03T22:56:17.207Z,57.17
2018-01-03T22:58:44.675Z,56.69
2018-01-03T23:01:12.155Z,56.24
2018-01-03T23:03:39.695Z,56.14
2018-01-03T23:06:07.205Z,56.21
2018-01-03T23:08:34.867Z,56.54
2018-01-03T23:11:02.349Z,56.62
2018-01-03T23:13:29.851Z,56.38
2018-01-03T23:15:57.345Z,56.18
2018-01-03T23:18:24.930Z,56.00
2018-01-03T23:20:52.397Z,55.65
2018-01-03T23:23:19.898Z,55.59
2018-01-03T23:25:47.383Z,55.41
2018-01-03T23:28:14.865Z,55.42
2018-01-03T23:30:42.329Z,55.27
2018-01-03T23:33:09.876Z,55.25
2018-01-03T23:35:37.364Z,55.47
2018-01-03T23:38:04.840Z,55.54
2018-01-03T23:40:32.315Z,56.27
2018-01-03T23:42:59.797Z,56.50
2018-01-03T23:45:27.304Z,56.92
2018-01-03T23:47:54.804Z,57.06
2018-01-03T23:50:22.275Z,57.20
2018-01-03T23:52:49.755Z,57.12
2018-01-03T23:55:17.258Z,57.16
2018-01-03T23:57:44.772Z,57.36
